sensor_id;sensor_type;location;lat;lon;timestamp;temperature;humidity
20740;DHT22;10530;49.968;19.844;2023-02-15T00:03:16;3.80;99.90
20740;DHT22;10530;49.968;19.844;2023-02-15T00:08:19;3.90;99.90
20740;DHT22;10530;49.968;19.844;2023-02-15T00:13:22;3.80;99.90
20740;DHT22;10530;49.968;19.844;2023-02-15T00:18:24;3.80;99.90
20740;DHT22;10530;49.968;19.844;2023-02-15T00:23:27;3.80;99.90
20740;DHT22;10530;49.968;19.844;2023-02-15T00:28:31;3.80;99.90
20740;DHT22;10530;49.968;19.844;2023-02-15T00:33:34;3.90;99.90
20740;DHT22;10530;49.968;19.844;2023-02-15T00:38:37;3.80;99.90
20740;DHT22;10530;49.968;19.844;2023-02-15T00:43:40;3.80;99.90
20740;DHT22;10530;49.968;19.844;2023-02-15T00:48:43;3.80;99.90
20740;DHT22;10530;49.968;19.844;2023-02-15T00:53:45;3.90;99.90
20740;DHT22;10530;49.968;19.844;2023-02-15T00:58:48;3.90;99.90
20740;DHT22;10530;49.968;19.844;2023-02-15T01:03:51;4.00;99.90
20740;DHT22;10530;49.968;19.844;2023-02-15T01:08:54;4.00;99.90
20740;DHT22;10530;49.968;19.844;2023-02-15T01:13:58;4.00;99.90
20740;DHT22;10530;49.968;19.844;2023-02-15T01:19:00;4.00;99.90
20740;DHT22;10530;49.968;19.844;2023-02-15T01:24:14;4.10;99.90
20740;DHT22;10530;49.968;19.844;2023-02-15T01:29:17;4.10;99.90
20740;DHT22;10530;49.968;19.844;2023-02-15T01:34:20;4.00;99.90
20740;DHT22;10530;49.968;19.844;2023-02-15T01:39:23;4.10;99.90
20740;DHT22;10530;49.968;19.844;2023-02-15T01:55:27;4.00;99.90
20740;DHT22;10530;49.968;19.844;2023-02-15T02:00:32;4.00;99.90
20740;DHT22;10530;49.968;19.844;2023-02-15T02:05:37;3.90;99.90
20740;DHT22;10530;49.968;19.844;2023-02-15T02:10:40;3.90;99.90
20740;DHT22;10530;49.968;19.844;2023-02-15T02:27:18;3.90;99.90
20740;DHT22;10530;49.968;19.844;2023-02-15T02:43:35;4.00;99.90
20740;DHT22;10530;49.968;19.844;2023-02-15T02:48:40;3.80;99.90
20740;DHT22;10530;49.968;19.844;2023-02-15T02:53:43;3.80;99.90
20740;DHT22;10530;49.968;19.844;2023-02-15T02:59:16;3.80;99.90
20740;DHT22;10530;49.968;19.844;2023-02-15T03:04:26;3.80;99.90
20740;DHT22;10530;49.968;19.844;2023-02-15T03:09:37;3.70;99.90
20740;DHT22;10530;49.968;19.844;2023-02-15T03:14:51;3.80;99.90
20740;DHT22;10530;49.968;19.844;2023-02-15T03:19:58;3.70;99.90
20740;DHT22;10530;49.968;19.844;2023-02-15T03:25:11;3.70;99.90
20740;DHT22;10530;49.968;19.844;2023-02-15T03:30:18;3.70;99.90
20740;DHT22;10530;49.968;19.844;2023-02-15T03:35:25;3.60;99.90
20740;DHT22;10530;49.968;19.844;2023-02-15T03:40:38;3.60;99.90
20740;DHT22;10530;49.968;19.844;2023-02-15T03:46:11;3.60;99.90
20740;DHT22;10530;49.968;19.844;2023-02-15T03:51:18;3.60;99.90
20740;DHT22;10530;49.968;19.844;2023-02-15T03:56:40;3.60;99.90
20740;DHT22;10530;49.968;19.844;2023-02-15T04:01:50;3.60;99.90
20740;DHT22;10530;49.968;19.844;2023-02-15T04:07:04;3.60;99.90
20740;DHT22;10530;49.968;19.844;2023-02-15T04:12:07;3.60;99.90
20740;DHT22;10530;49.968;19.844;2023-02-15T04:17:10;3.60;99.90
20740;DHT22;10530;49.968;19.844;2023-02-15T04:22:13;3.60;99.90
20740;DHT22;10530;49.968;19.844;2023-02-15T04:27:34;3.50;99.90
20740;DHT22;10530;49.968;19.844;2023-02-15T04:32:37;3.50;99.90
20740;DHT22;10530;49.968;19.844;2023-02-15T04:37:41;3.50;99.90
20740;DHT22;10530;49.968;19.844;2023-02-15T04:42:44;3.50;99.90
20740;DHT22;10530;49.968;19.844;2023-02-15T04:47:47;3.40;99.90
20740;DHT22;10530;49.968;19.844;2023-02-15T04:52:49;3.40;99.90
20740;DHT22;10530;49.968;19.844;2023-02-15T04:57:52;3.40;99.90
20740;DHT22;10530;49.968;19.844;2023-02-15T05:02:55;3.40;99.90
20740;DHT22;10530;49.968;19.844;2023-02-15T05:07:58;3.30;99.90
20740;DHT22;10530;49.968;19.844;2023-02-15T05:13:01;3.30;99.90
20740;DHT22;10530;49.968;19.844;2023-02-15T05:18:03;3.20;99.90
20740;DHT22;10530;49.968;19.844;2023-02-15T05:23:08;3.20;99.90
20740;DHT22;10530;49.968;19.844;2023-02-15T05:28:11;3.10;99.90
20740;DHT22;10530;49.968;19.844;2023-02-15T05:33:23;3.10;99.90
20740;DHT22;10530;49.968;19.844;2023-02-15T05:38:26;3.10;99.90
20740;DHT22;10530;49.968;19.844;2023-02-15T05:43:29;3.10;99.90
20740;DHT22;10530;49.968;19.844;2023-02-15T05:48:32;3.00;99.90
20740;DHT22;10530;49.968;19.844;2023-02-15T05:53:37;3.00;99.90
20740;DHT22;10530;49.968;19.844;2023-02-15T05:58:41;3.00;99.90
20740;DHT22;10530;49.968;19.844;2023-02-15T06:03:45;2.90;99.90
20740;DHT22;10530;49.968;19.844;2023-02-15T06:08:48;2.80;99.90
20740;DHT22;10530;49.968;19.844;2023-02-15T06:13:51;2.80;99.90
20740;DHT22;10530;49.968;19.844;2023-02-15T06:18:54;2.80;99.90
20740;DHT22;10530;49.968;19.844;2023-02-15T06:23:56;2.70;99.90
20740;DHT22;10530;49.968;19.844;2023-02-15T06:28:59;2.70;99.90
20740;DHT22;10530;49.968;19.844;2023-02-15T06:34:03;2.70;99.90
20740;DHT22;10530;49.968;19.844;2023-02-15T06:39:05;2.70;99.90
20740;DHT22;10530;49.968;19.844;2023-02-15T06:44:09;2.60;99.90
20740;DHT22;10530;49.968;19.844;2023-02-15T06:49:11;2.70;99.90
20740;DHT22;10530;49.968;19.844;2023-02-15T06:54:14;3.20;99.90
20740;DHT22;10530;49.968;19.844;2023-02-15T06:59:17;3.80;99.90
20740;DHT22;10530;49.968;19.844;2023-02-15T07:04:20;4.30;99.90
20740;DHT22;10530;49.968;19.844;2023-02-15T07:09:23;3.80;99.90
20740;DHT22;10530;49.968;19.844;2023-02-15T07:14:25;4.60;99.90
20740;DHT22;10530;49.968;19.844;2023-02-15T07:19:30;4.70;99.90
20740;DHT22;10530;49.968;19.844;2023-02-15T07:24:33;7.20;99.90
20740;DHT22;10530;49.968;19.844;2023-02-15T07:29:35;6.60;99.90
20740;DHT22;10530;49.968;19.844;2023-02-15T07:34:39;7.10;99.90
20740;DHT22;10530;49.968;19.844;2023-02-15T07:39:42;6.80;99.90
20740;DHT22;10530;49.968;19.844;2023-02-15T07:44:45;7.90;99.90
20740;DHT22;10530;49.968;19.844;2023-02-15T07:49:48;7.80;99.90
20740;DHT22;10530;49.968;19.844;2023-02-15T07:54:51;7.20;99.90
20740;DHT22;10530;49.968;19.844;2023-02-15T07:59:54;7.40;99.90
20740;DHT22;10530;49.968;19.844;2023-02-15T08:04:57;6.50;99.90
20740;DHT22;10530;49.968;19.844;2023-02-15T08:10:00;7.40;99.90
20740;DHT22;10530;49.968;19.844;2023-02-15T08:15:03;7.70;99.90
20740;DHT22;10530;49.968;19.844;2023-02-15T08:20:07;8.60;99.90
20740;DHT22;10530;49.968;19.844;2023-02-15T08:25:10;7.40;99.90
20740;DHT22;10530;49.968;19.844;2023-02-15T08:30:14;7.90;99.90
20740;DHT22;10530;49.968;19.844;2023-02-15T08:35:17;9.10;99.90
20740;DHT22;10530;49.968;19.844;2023-02-15T08:40:19;8.70;99.90
20740;DHT22;10530;49.968;19.844;2023-02-15T08:45:23;9.10;99.90
20740;DHT22;10530;49.968;19.844;2023-02-15T08:50:28;8.40;99.90
20740;DHT22;10530;49.968;19.844;2023-02-15T08:55:30;8.30;99.90
20740;DHT22;10530;49.968;19.844;2023-02-15T09:00:33;9.40;99.90
20740;DHT22;10530;49.968;19.844;2023-02-15T09:05:36;9.90;99.90
20740;DHT22;10530;49.968;19.844;2023-02-15T09:10:39;12.10;94.80
20740;DHT22;10530;49.968;19.844;2023-02-15T09:15:42;13.60;81.80
20740;DHT22;10530;49.968;19.844;2023-02-15T09:20:44;15.40;60.70
20740;DHT22;10530;49.968;19.844;2023-02-15T09:25:47;16.50;48.80
20740;DHT22;10530;49.968;19.844;2023-02-15T09:30:50;15.80;50.40
20740;DHT22;10530;49.968;19.844;2023-02-15T09:35:53;18.40;41.60
20740;DHT22;10530;49.968;19.844;2023-02-15T09:51:58;15.50;38.80
20740;DHT22;10530;49.968;19.844;2023-02-15T09:57:32;15.50;39.80
20740;DHT22;10530;49.968;19.844;2023-02-15T10:13:32;18.70;31.20
20740;DHT22;10530;49.968;19.844;2023-02-15T10:29:34;19.10;32.60
20740;DHT22;10530;49.968;19.844;2023-02-15T10:34:43;18.80;29.10
20740;DHT22;10530;49.968;19.844;2023-02-15T10:50:51;19.30;29.10
20740;DHT22;10530;49.968;19.844;2023-02-15T10:56:23;18.40;29.70
20740;DHT22;10530;49.968;19.844;2023-02-15T11:06:57;17.40;31.20
20740;DHT22;10530;49.968;19.844;2023-02-15T11:12:01;18.00;29.60
20740;DHT22;10530;49.968;19.844;2023-02-15T11:17:22;18.20;31.20
20740;DHT22;10530;49.968;19.844;2023-02-15T11:22:26;16.10;31.60
20740;DHT22;10530;49.968;19.844;2023-02-15T11:27:31;17.50;33.10
20740;DHT22;10530;49.968;19.844;2023-02-15T11:32:46;19.60;28.30
20740;DHT22;10530;49.968;19.844;2023-02-15T11:38:04;18.60;29.80
20740;DHT22;10530;49.968;19.844;2023-02-15T11:43:20;17.00;30.20
20740;DHT22;10530;49.968;19.844;2023-02-15T11:48:25;18.90;28.50
20740;DHT22;10530;49.968;19.844;2023-02-15T11:53:32;19.50;28.10
20740;DHT22;10530;49.968;19.844;2023-02-15T11:58:41;19.30;28.60
20740;DHT22;10530;49.968;19.844;2023-02-15T12:03:59;17.80;32.10
20740;DHT22;10530;49.968;19.844;2023-02-15T12:14:12;16.50;32.10
20740;DHT22;10530;49.968;19.844;2023-02-15T12:19:27;16.80;30.90
20740;DHT22;10530;49.968;19.844;2023-02-15T12:24:43;18.20;30.20
20740;DHT22;10530;49.968;19.844;2023-02-15T12:29:52;18.10;29.70
20740;DHT22;10530;49.968;19.844;2023-02-15T12:35:06;18.20;29.70
20740;DHT22;10530;49.968;19.844;2023-02-15T12:40:39;18.70;30.00
20740;DHT22;10530;49.968;19.844;2023-02-15T12:45:42;17.20;30.90
20740;DHT22;10530;49.968;19.844;2023-02-15T12:50:48;17.80;29.10
20740;DHT22;10530;49.968;19.844;2023-02-15T12:56:05;18.40;28.00
20740;DHT22;10530;49.968;19.844;2023-02-15T13:01:15;18.90;27.10
20740;DHT22;10530;49.968;19.844;2023-02-15T13:06:19;18.40;28.60
20740;DHT22;10530;49.968;19.844;2023-02-15T13:11:29;19.10;28.10
20740;DHT22;10530;49.968;19.844;2023-02-15T13:16:38;18.90;27.70
20740;DHT22;10530;49.968;19.844;2023-02-15T13:21:46;17.50;28.50
20740;DHT22;10530;49.968;19.844;2023-02-15T13:26:50;17.70;29.60
20740;DHT22;10530;49.968;19.844;2023-02-15T14:25:40;14.70;36.80
20740;DHT22;10530;49.968;19.844;2023-02-15T14:30:49;14.70;37.20
20740;DHT22;10530;49.968;19.844;2023-02-15T14:35:52;13.90;39.40
20740;DHT22;10530;49.968;19.844;2023-02-15T14:41:12;13.40;40.90
20740;DHT22;10530;49.968;19.844;2023-02-15T15:07:25;11.10;56.20
20740;DHT22;10530;49.968;19.844;2023-02-15T15:22:42;10.20;66.30
20740;DHT22;10530;49.968;19.844;2023-02-15T15:27:51;10.00;71.80
20740;DHT22;10530;49.968;19.844;2023-02-15T15:48:37;8.70;98.40
20740;DHT22;10530;49.968;19.844;2023-02-15T15:53:44;8.50;99.90
20740;DHT22;10530;49.968;19.844;2023-02-15T15:58:53;8.20;99.90
20740;DHT22;10530;49.968;19.844;2023-02-15T16:03:58;8.30;99.90
20740;DHT22;10530;49.968;19.844;2023-02-15T16:09:23;8.10;99.90
20740;DHT22;10530;49.968;19.844;2023-02-15T16:14:31;7.60;99.90
20740;DHT22;10530;49.968;19.844;2023-02-15T16:19:41;7.40;99.90
20740;DHT22;10530;49.968;19.844;2023-02-15T16:25:00;7.20;99.90
20740;DHT22;10530;49.968;19.844;2023-02-15T16:35:21;6.70;99.90
20740;DHT22;10530;49.968;19.844;2023-02-15T16:40:25;6.60;99.90
20740;DHT22;10530;49.968;19.844;2023-02-15T16:45:31;6.50;99.90
20740;DHT22;10530;49.968;19.844;2023-02-15T16:50:37;6.40;99.90
20740;DHT22;10530;49.968;19.844;2023-02-15T16:55:41;6.20;99.90
20740;DHT22;10530;49.968;19.844;2023-02-15T17:00:44;6.10;99.90
20740;DHT22;10530;49.968;19.844;2023-02-15T17:05:51;5.80;99.90
20740;DHT22;10530;49.968;19.844;2023-02-15T17:16:31;5.40;99.90
20740;DHT22;10530;49.968;19.844;2023-02-15T17:21:41;5.30;99.90
20740;DHT22;10530;49.968;19.844;2023-02-15T17:26:49;5.20;99.90
20740;DHT22;10530;49.968;19.844;2023-02-15T17:31:55;5.00;99.90
20740;DHT22;10530;49.968;19.844;2023-02-15T17:37:00;4.90;99.90
20740;DHT22;10530;49.968;19.844;2023-02-15T17:42:04;4.70;99.90
20740;DHT22;10530;49.968;19.844;2023-02-15T17:47:13;4.50;99.90
20740;DHT22;10530;49.968;19.844;2023-02-15T17:52:17;4.20;99.90
20740;DHT22;10530;49.968;19.844;2023-02-15T17:57:20;4.10;99.90
20740;DHT22;10530;49.968;19.844;2023-02-15T18:02:23;3.90;99.90
20740;DHT22;10530;49.968;19.844;2023-02-15T18:07:45;3.70;99.90
20740;DHT22;10530;49.968;19.844;2023-02-15T18:13:06;3.60;99.90
20740;DHT22;10530;49.968;19.844;2023-02-15T18:18:11;3.30;99.90
20740;DHT22;10530;49.968;19.844;2023-02-15T18:23:15;3.10;99.90
20740;DHT22;10530;49.968;19.844;2023-02-15T18:28:18;3.20;99.90
20740;DHT22;10530;49.968;19.844;2023-02-15T18:33:33;3.10;99.90
20740;DHT22;10530;49.968;19.844;2023-02-15T18:38:37;3.00;99.90
20740;DHT22;10530;49.968;19.844;2023-02-15T18:43:40;2.70;99.90
20740;DHT22;10530;49.968;19.844;2023-02-15T18:48:43;2.40;99.90
20740;DHT22;10530;49.968;19.844;2023-02-15T18:53:50;2.30;99.90
20740;DHT22;10530;49.968;19.844;2023-02-15T18:58:53;2.20;99.90
20740;DHT22;10530;49.968;19.844;2023-02-15T19:03:56;2.10;99.90
20740;DHT22;10530;49.968;19.844;2023-02-15T19:08:59;2.00;99.90
20740;DHT22;10530;49.968;19.844;2023-02-15T19:14:02;1.80;99.90
20740;DHT22;10530;49.968;19.844;2023-02-15T19:19:05;1.70;99.90
20740;DHT22;10530;49.968;19.844;2023-02-15T19:24:17;1.60;99.90
20740;DHT22;10530;49.968;19.844;2023-02-15T19:29:27;1.60;99.90
20740;DHT22;10530;49.968;19.844;2023-02-15T19:34:32;1.50;99.90
20740;DHT22;10530;49.968;19.844;2023-02-15T19:39:38;1.40;99.90
20740;DHT22;10530;49.968;19.844;2023-02-15T19:44:42;1.40;99.90
20740;DHT22;10530;49.968;19.844;2023-02-15T19:49:45;1.10;99.90
20740;DHT22;10530;49.968;19.844;2023-02-15T19:54:48;1.20;99.90
20740;DHT22;10530;49.968;19.844;2023-02-15T19:59:51;1.10;99.90
20740;DHT22;10530;49.968;19.844;2023-02-15T20:04:54;1.10;99.90
20740;DHT22;10530;49.968;19.844;2023-02-15T20:09:57;1.00;99.90
20740;DHT22;10530;49.968;19.844;2023-02-15T20:15:00;1.00;99.90
20740;DHT22;10530;49.968;19.844;2023-02-15T20:20:02;1.20;99.90
20740;DHT22;10530;49.968;19.844;2023-02-15T20:25:09;1.10;99.90
20740;DHT22;10530;49.968;19.844;2023-02-15T20:30:24;1.10;99.90
20740;DHT22;10530;49.968;19.844;2023-02-15T20:35:27;1.00;99.90
20740;DHT22;10530;49.968;19.844;2023-02-15T20:40:33;0.90;99.90
20740;DHT22;10530;49.968;19.844;2023-02-15T20:45:36;0.90;99.90
20740;DHT22;10530;49.968;19.844;2023-02-15T20:50:40;0.70;99.90
20740;DHT22;10530;49.968;19.844;2023-02-15T20:55:43;0.70;99.90
20740;DHT22;10530;49.968;19.844;2023-02-15T21:00:45;0.70;99.90
20740;DHT22;10530;49.968;19.844;2023-02-15T21:05:49;0.60;99.90
20740;DHT22;10530;49.968;19.844;2023-02-15T21:10:52;0.70;99.90
20740;DHT22;10530;49.968;19.844;2023-02-15T21:15:56;0.70;99.90
20740;DHT22;10530;49.968;19.844;2023-02-15T21:21:01;0.50;99.90
20740;DHT22;10530;49.968;19.844;2023-02-15T21:26:10;0.40;99.90
20740;DHT22;10530;49.968;19.844;2023-02-15T21:31:21;0.40;99.90
20740;DHT22;10530;49.968;19.844;2023-02-15T21:36:24;0.40;99.90
20740;DHT22;10530;49.968;19.844;2023-02-15T21:41:28;0.30;99.90
20740;DHT22;10530;49.968;19.844;2023-02-15T21:46:50;0.20;99.90
20740;DHT22;10530;49.968;19.844;2023-02-15T21:52:13;0.20;99.90
20740;DHT22;10530;49.968;19.844;2023-02-15T21:57:16;0.20;99.90
20740;DHT22;10530;49.968;19.844;2023-02-15T22:02:27;0.10;99.90
20740;DHT22;10530;49.968;19.844;2023-02-15T22:07:30;0.10;99.90
20740;DHT22;10530;49.968;19.844;2023-02-15T22:12:33;0.00;99.90
20740;DHT22;10530;49.968;19.844;2023-02-15T22:17:36;0.00;99.90
20740;DHT22;10530;49.968;19.844;2023-02-15T22:22:39;-0.10;99.90
20740;DHT22;10530;49.968;19.844;2023-02-15T22:27:43;-0.20;99.90
20740;DHT22;10530;49.968;19.844;2023-02-15T22:32:46;-0.20;99.90
20740;DHT22;10530;49.968;19.844;2023-02-15T22:37:49;-0.20;99.90
20740;DHT22;10530;49.968;19.844;2023-02-15T22:42:53;-0.10;99.90
20740;DHT22;10530;49.968;19.844;2023-02-15T22:47:58;-0.10;99.90
20740;DHT22;10530;49.968;19.844;2023-02-15T22:53:02;0.00;99.90
20740;DHT22;10530;49.968;19.844;2023-02-15T22:58:05;0.00;99.90
20740;DHT22;10530;49.968;19.844;2023-02-15T23:03:23;-0.10;99.90
20740;DHT22;10530;49.968;19.844;2023-02-15T23:08:26;-0.10;99.90
20740;DHT22;10530;49.968;19.844;2023-02-15T23:13:31;-0.20;99.90
20740;DHT22;10530;49.968;19.844;2023-02-15T23:18:41;-0.30;99.90
20740;DHT22;10530;49.968;19.844;2023-02-15T23:23:48;-0.30;99.90
20740;DHT22;10530;49.968;19.844;2023-02-15T23:28:51;-0.40;99.90
20740;DHT22;10530;49.968;19.844;2023-02-15T23:33:54;-0.30;99.90
20740;DHT22;10530;49.968;19.844;2023-02-15T23:39:00;-0.50;99.90
20740;DHT22;10530;49.968;19.844;2023-02-15T23:44:26;-0.50;99.90
20740;DHT22;10530;49.968;19.844;2023-02-15T23:49:29;-0.60;99.90
20740;DHT22;10530;49.968;19.844;2023-02-15T23:54:32;-0.40;99.90
20740;DHT22;10530;49.968;19.844;2023-02-15T23:59:35;-0.50;99.90
